Aviation Digital Data Service (ADDS)

Output produced by METARs form (0827 UTC 19 April 2019)
found at http://www.aviationweather.gov/metar/data/
 
Forecast for: LOWG (GRAZ (MIL/CIV) , AT)
Text: TAF LOWG 190515Z 1906/2006 VRB02KT CAVOK TX20/1914Z TN04/2004Z
Forecast period: 0600 UTC 19 April 2019 to 0600 UTC 20 April 2019
Forecast type: FROM: standard forecast or significant change
Winds: variable direction winds at 2 MPH (2 knots; 1.0 m/s)
Visibility: 6 or more miles 10+ km)
Ceiling: unknown
Clouds: missing
Weather: no significant weather forecast for this period
Text: TEMPO 1910/1916 17007KT
Forecast period: 1000 to 1600 UTC 19 April 2019
Forecast type: TEMPORARY: The following changes expected for less than half the time period
Winds: from the S (170 degrees) at 8 MPH (7 knots; 3.6 m/s)
Visibility: missing
Ceiling: unknown
Clouds: missing
Weather: no significant weather forecast for this period